createdAt,value
2022-10-09T00:03:35.171Z,4.47
2022-10-09T00:08:39.414Z,4.00
2022-10-09T00:13:44.562Z,4.27
2022-10-09T00:18:48.157Z,4.00
2022-10-09T00:23:52.191Z,3.87
2022-10-09T00:28:57.452Z,4.63
2022-10-09T00:34:00.406Z,4.17
2022-10-09T00:39:03.699Z,3.30
2022-10-09T00:44:40.024Z,4.10
2022-10-09T00:49:44.823Z,4.00
2022-10-09T00:54:48.164Z,4.73
2022-10-09T00:59:51.992Z,4.43
2022-10-09T01:04:56.918Z,4.00
2022-10-09T01:10:07.039Z,3.90
2022-10-09T01:15:18.359Z,4.07
2022-10-09T01:20:33.154Z,3.97
2022-10-09T01:25:43.139Z,3.60
2022-10-09T01:30:48.321Z,3.77
2022-10-09T01:35:54.512Z,3.97
2022-10-09T01:40:59.782Z,3.80
2022-10-09T01:46:30.936Z,4.00
2022-10-09T01:51:41.244Z,4.40
2022-10-09T01:56:49.208Z,3.83
2022-10-09T02:01:53.965Z,4.13
2022-10-09T02:06:57.091Z,4.23
2022-10-09T02:12:05.184Z,3.20
2022-10-09T02:17:16.007Z,3.80
2022-10-09T02:22:21.337Z,3.80
2022-10-09T02:27:24.876Z,3.60
2022-10-09T02:32:29.579Z,4.20
2022-10-09T02:37:32.534Z,3.93
2022-10-09T02:42:35.449Z,4.07
2022-10-09T02:47:39.725Z,4.10
2022-10-09T02:52:42.622Z,3.53
2022-10-09T02:57:46.014Z,4.57
2022-10-09T03:02:51.294Z,4.00
2022-10-09T03:07:54.382Z,3.67
2022-10-09T03:12:57.369Z,3.73
2022-10-09T03:18:01.878Z,3.07
2022-10-09T03:23:04.871Z,4.30
2022-10-09T03:28:07.782Z,3.77
2022-10-09T03:33:12.193Z,5.23
2022-10-09T03:38:15.699Z,4.03
2022-10-09T03:43:18.653Z,5.57
2022-10-09T03:48:23.312Z,4.73
2022-10-09T03:53:26.360Z,4.70
2022-10-09T03:58:29.339Z,4.63
2022-10-09T04:03:33.623Z,4.23
2022-10-09T04:08:36.751Z,3.70
2022-10-09T04:13:39.550Z,4.43
2022-10-09T04:18:45.492Z,4.20
2022-10-09T04:23:48.397Z,4.03
2022-10-09T04:28:51.375Z,4.50
2022-10-09T04:33:57.177Z,3.77
2022-10-09T04:39:00.081Z,4.40
2022-10-09T04:44:02.927Z,4.23
2022-10-09T04:49:07.352Z,4.00
2022-10-09T04:54:10.666Z,3.63
2022-10-09T04:59:13.752Z,3.80
2022-10-09T05:04:18.381Z,4.20
2022-10-09T05:09:21.308Z,3.63
2022-10-09T05:14:24.565Z,3.60
2022-10-09T05:19:30.309Z,3.77
2022-10-09T05:24:33.179Z,3.67
2022-10-09T05:29:36.097Z,3.73
2022-10-09T05:34:40.622Z,4.10
2022-10-09T05:39:43.595Z,3.27
2022-10-09T05:44:46.430Z,3.57
2022-10-09T05:49:50.672Z,3.80
2022-10-09T05:54:53.527Z,3.87
2022-10-09T05:59:56.424Z,4.13
2022-10-09T06:05:00.672Z,4.17
2022-10-09T06:10:03.748Z,4.20
2022-10-09T06:15:07.786Z,3.97
2022-10-09T06:20:12.107Z,4.73
2022-10-09T06:25:15.335Z,4.60
2022-10-09T06:30:18.422Z,5.77
2022-10-09T06:35:22.657Z,4.90
2022-10-09T06:40:25.877Z,5.20
2022-10-09T06:45:31.114Z,4.90
2022-10-09T06:50:38.053Z,5.13
2022-10-09T06:55:40.935Z,5.73
2022-10-09T07:00:43.865Z,4.73
2022-10-09T07:05:48.055Z,5.17
2022-10-09T07:10:50.940Z,4.33
2022-10-09T07:15:53.864Z,4.87
2022-10-09T07:20:58.216Z,4.80
2022-10-09T07:26:02.230Z,5.27
2022-10-09T07:31:05.980Z,3.90
2022-10-09T07:36:11.856Z,3.83
2022-10-09T07:41:14.757Z,4.97
2022-10-09T07:46:19.946Z,5.10
2022-10-09T07:51:27.066Z,4.80
2022-10-09T07:56:31.840Z,5.10
2022-10-09T08:01:36.589Z,5.23
2022-10-09T08:06:40.997Z,5.77
2022-10-09T08:11:44.584Z,4.10
2022-10-09T08:16:47.900Z,4.27
2022-10-09T08:21:52.313Z,3.97
2022-10-09T08:26:55.205Z,4.10
2022-10-09T08:31:58.093Z,4.33
2022-10-09T08:37:02.490Z,4.80
2022-10-09T08:42:06.164Z,4.73
2022-10-09T08:47:14.747Z,4.53
2022-10-09T08:52:28.082Z,4.77
2022-10-09T08:57:34.375Z,4.17
2022-10-09T09:02:58.173Z,4.67
2022-10-09T09:08:11.508Z,4.60
2022-10-09T09:13:33.662Z,4.50
2022-10-09T09:18:45.107Z,4.73
2022-10-09T09:23:49.666Z,4.77
2022-10-09T09:28:56.870Z,4.63
2022-10-09T09:34:05.786Z,4.03
2022-10-09T09:44:39.228Z,6.17
2022-10-09T09:49:54.805Z,4.10
2022-10-09T09:55:00.539Z,4.00
2022-10-09T10:00:23.990Z,3.95
2022-10-09T10:05:28.547Z,4.55
2022-10-09T10:10:32.990Z,4.22
2022-10-09T10:15:36.227Z,4.05
2022-10-09T10:20:45.864Z,4.00
2022-10-09T10:25:53.169Z,4.13
2022-10-09T10:30:58.218Z,3.72
2022-10-09T10:36:02.335Z,3.97
2022-10-09T10:41:17.786Z,4.32
2022-10-09T10:46:25.069Z,3.75
2022-10-09T10:51:42.448Z,3.92
2022-10-09T10:56:50.074Z,4.03
2022-10-09T11:02:01.378Z,3.80
2022-10-09T11:07:17.248Z,3.58
2022-10-09T11:12:47.240Z,3.63
2022-10-09T11:17:58.777Z,3.67
2022-10-09T11:23:12.584Z,3.67
2022-10-09T11:28:23.444Z,3.17
2022-10-09T11:33:33.950Z,3.20
2022-10-09T11:38:40.498Z,2.40
2022-10-09T11:44:05.572Z,3.10
2022-10-09T11:49:20.637Z,2.58
2022-10-09T11:54:25.987Z,2.38
2022-10-09T11:59:31.957Z,2.40
2022-10-09T12:10:03.345Z,2.42
2022-10-09T12:15:26.547Z,2.22
2022-10-09T12:20:30.024Z,1.85
2022-10-09T12:25:40.992Z,1.60
2022-10-09T12:30:49.770Z,2.42
2022-10-09T12:36:02.019Z,1.88
2022-10-09T12:41:11.766Z,1.80
2022-10-09T12:46:16.240Z,1.73
2022-10-09T12:51:24.896Z,1.30
2022-10-09T12:56:31.495Z,1.58
2022-10-09T13:01:36.601Z,1.70
2022-10-09T13:06:45.089Z,1.48
2022-10-09T13:11:54.486Z,1.20
2022-10-09T13:16:58.826Z,1.27
2022-10-09T13:22:20.690Z,1.20
2022-10-09T13:27:26.857Z,1.38
2022-10-09T13:32:31.875Z,1.60
2022-10-09T13:37:34.958Z,1.45
2022-10-09T13:42:38.437Z,1.60
2022-10-09T13:47:42.790Z,1.67
2022-10-09T13:52:45.827Z,1.55
2022-10-09T13:57:49.282Z,1.50
2022-10-09T14:02:54.416Z,1.25
2022-10-09T14:07:57.425Z,1.65
2022-10-09T14:13:00.370Z,1.70
2022-10-09T14:18:05.291Z,2.00
2022-10-09T14:23:09.291Z,1.50
2022-10-09T14:28:12.633Z,1.75
2022-10-09T14:33:17.093Z,1.40
2022-10-09T14:38:20.243Z,1.67
2022-10-09T14:43:23.884Z,1.70
2022-10-09T14:48:28.274Z,1.42
2022-10-09T14:53:31.328Z,1.90
2022-10-09T14:58:36.351Z,1.40
2022-10-09T15:03:40.666Z,2.00
2022-10-09T15:08:44.375Z,2.28
2022-10-09T15:13:47.324Z,1.90
2022-10-09T15:18:53.524Z,1.50
2022-10-09T15:23:57.942Z,1.23
2022-10-09T15:29:03.598Z,1.52
2022-10-09T15:34:09.667Z,1.58
2022-10-09T15:39:12.783Z,1.20
2022-10-09T15:44:17.541Z,1.60
2022-10-09T15:49:22.414Z,1.20
2022-10-09T15:54:25.574Z,1.50
2022-10-09T15:59:30.131Z,1.60
2022-10-09T16:04:34.754Z,1.45
2022-10-09T16:09:38.210Z,1.38
2022-10-09T16:14:42.480Z,1.65
2022-10-09T16:19:46.816Z,1.30
2022-10-09T16:24:50.044Z,1.40
2022-10-09T16:29:53.157Z,1.20
2022-10-09T16:34:57.664Z,1.20
2022-10-09T16:40:01.223Z,1.30
2022-10-09T16:45:05.533Z,1.48
2022-10-09T16:50:11.205Z,1.50
2022-10-09T16:55:14.106Z,1.67
2022-10-09T17:00:19.353Z,1.85
2022-10-09T17:05:25.528Z,2.13
2022-10-09T17:10:28.803Z,2.20
2022-10-09T17:15:31.826Z,2.33
2022-10-09T17:20:38.518Z,2.08
2022-10-09T17:25:43.117Z,1.88
2022-10-09T17:30:46.169Z,1.92
2022-10-09T17:35:50.475Z,2.00
2022-10-09T17:40:53.398Z,2.10
2022-10-09T17:45:56.422Z,2.30
2022-10-09T17:51:03.614Z,2.13
2022-10-09T17:56:07.321Z,2.60
2022-10-09T18:01:12.461Z,2.10
2022-10-09T18:06:19.118Z,2.50
2022-10-09T18:11:23.590Z,2.42
2022-10-09T18:16:35.951Z,2.23
2022-10-09T18:21:42.783Z,2.47
2022-10-09T18:26:46.305Z,2.57
2022-10-09T18:31:50.584Z,2.00
2022-10-09T18:36:54.896Z,2.13
2022-10-09T18:41:58.381Z,2.10
2022-10-09T18:47:01.458Z,2.40
2022-10-09T18:52:05.877Z,2.33
2022-10-09T18:57:10.258Z,2.50
2022-10-09T19:02:13.408Z,2.60
2022-10-09T19:07:17.820Z,2.57
2022-10-09T19:12:21.394Z,3.53
2022-10-09T19:17:24.425Z,2.53
2022-10-09T19:22:28.887Z,2.90
2022-10-09T19:27:32.910Z,3.03
2022-10-09T19:32:35.916Z,2.90
2022-10-09T19:37:40.516Z,3.30
2022-10-09T19:42:43.456Z,3.00
2022-10-09T19:47:47.613Z,3.10
2022-10-09T19:52:55.127Z,3.23
2022-10-09T19:57:59.081Z,3.10
2022-10-09T20:03:02.027Z,3.00
2022-10-09T20:08:06.381Z,3.30
2022-10-09T20:13:09.392Z,3.00
2022-10-09T20:18:12.627Z,3.20
2022-10-09T20:23:17.161Z,3.30
2022-10-09T20:28:20.782Z,3.60
2022-10-09T20:33:23.981Z,3.40
2022-10-09T20:38:28.431Z,3.30
2022-10-09T20:43:31.631Z,3.60
2022-10-09T20:48:34.621Z,3.13
2022-10-09T20:53:39.145Z,3.23
2022-10-09T20:58:42.877Z,3.50
2022-10-09T21:03:45.967Z,3.57
2022-10-09T21:08:50.471Z,3.20
2022-10-09T21:13:53.568Z,3.23
2022-10-09T21:18:57.944Z,3.27
2022-10-09T21:24:02.823Z,3.70
2022-10-09T21:29:06.673Z,3.00
2022-10-09T21:34:09.622Z,3.23
2022-10-09T21:39:14.196Z,2.73
2022-10-09T21:44:17.174Z,3.17
2022-10-09T21:49:21.324Z,3.50
2022-10-09T21:54:25.955Z,2.63
2022-10-09T21:59:29.166Z,3.47
2022-10-09T22:04:32.338Z,3.03
2022-10-09T22:09:36.596Z,2.97
2022-10-09T22:14:39.455Z,3.13
2022-10-09T22:19:42.588Z,3.37
2022-10-09T22:24:46.803Z,3.13
2022-10-09T22:29:49.690Z,3.50
2022-10-09T22:34:53.134Z,3.03
2022-10-09T22:39:57.436Z,3.00
2022-10-09T22:45:00.342Z,3.00
2022-10-09T22:50:03.825Z,3.60
2022-10-09T22:55:09.272Z,3.20
2022-10-09T23:00:13.720Z,3.37
2022-10-09T23:05:16.599Z,3.60
2022-10-09T23:10:20.959Z,2.87
2022-10-09T23:15:24.062Z,3.43
2022-10-09T23:20:27.082Z,3.60
2022-10-09T23:25:31.352Z,3.47
2022-10-09T23:30:34.343Z,3.50
2022-10-09T23:35:41.758Z,3.17
2022-10-09T23:40:55.769Z,4.00
2022-10-09T23:46:00.912Z,4.03
2022-10-09T23:51:05.157Z,3.77
2022-10-09T23:56:16.214Z,3.47
